createdAt,value
2022-09-18T00:01:33.985Z,54.00
2022-09-18T00:04:01.502Z,54.11
2022-09-18T00:06:29.819Z,54.25
2022-09-18T00:08:58.052Z,54.39
2022-09-18T00:11:25.809Z,54.24
2022-09-18T00:13:52.494Z,54.53
2022-09-18T00:16:20.651Z,54.82
2022-09-18T00:18:48.009Z,54.80
2022-09-18T00:21:16.184Z,54.44
2022-09-18T00:23:43.063Z,54.56
2022-09-18T00:26:10.384Z,54.81
2022-09-18T00:28:36.908Z,54.16
2022-09-18T00:31:07.889Z,54.60
2022-09-18T00:33:35.576Z,54.28
2022-09-18T00:36:02.742Z,54.12
2022-09-18T00:38:29.645Z,54.53
2022-09-18T00:40:56.124Z,54.74
2022-09-18T00:43:24.086Z,54.13
2022-09-18T00:46:05.601Z,54.47
2022-09-18T00:48:40.469Z,54.27
2022-09-18T00:51:06.965Z,54.53
2022-09-18T00:53:35.991Z,53.97
2022-09-18T00:56:03.966Z,54.36
2022-09-18T00:58:30.489Z,54.09
2022-09-18T01:00:57.013Z,54.58
2022-09-18T01:03:23.522Z,54.51
2022-09-18T01:05:52.873Z,54.07
2022-09-18T01:08:31.666Z,54.54
2022-09-18T01:11:17.989Z,54.22
2022-09-18T01:13:58.951Z,54.66
2022-09-18T01:16:28.634Z,54.89
2022-09-18T01:19:01.193Z,54.65
2022-09-18T01:21:38.524Z,54.31
2022-09-18T01:24:07.766Z,54.24
2022-09-18T01:26:34.172Z,54.91
2022-09-18T01:29:05.292Z,54.71
2022-09-18T01:31:34.626Z,54.70
2022-09-18T01:34:03.950Z,54.86
2022-09-18T01:36:34.485Z,55.05
2022-09-18T01:39:12.939Z,54.57
2022-09-18T01:41:42.151Z,54.49
2022-09-18T01:44:13.489Z,55.34
2022-09-18T01:46:43.347Z,55.38
2022-09-18T01:49:16.444Z,55.08
2022-09-18T01:51:54.670Z,55.06
2022-09-18T01:54:27.138Z,55.12
2022-09-18T01:57:04.483Z,55.16
2022-09-18T01:59:41.355Z,54.75
2022-09-18T02:02:33.940Z,55.20
2022-09-18T02:05:02.703Z,55.42
2022-09-18T02:07:45.476Z,55.23
2022-09-18T02:10:12.299Z,56.10
2022-09-18T02:12:42.893Z,56.11
2022-09-18T02:15:11.042Z,55.81
2022-09-18T02:17:49.776Z,56.66
2022-09-18T02:20:20.647Z,56.84
2022-09-18T02:22:48.621Z,56.96
2022-09-18T02:25:17.232Z,56.72
2022-09-18T02:27:43.889Z,57.22
2022-09-18T02:30:10.806Z,56.92
2022-09-18T02:32:39.061Z,57.17
2022-09-18T02:35:07.389Z,57.96
2022-09-18T02:37:57.076Z,57.23
2022-09-18T02:40:31.399Z,57.14
2022-09-18T02:43:00.367Z,57.43
2022-09-18T02:45:49.946Z,57.80
2022-09-18T02:48:35.119Z,57.70
2022-09-18T02:51:07.767Z,58.10
2022-09-18T02:53:41.942Z,58.23
2022-09-18T02:56:14.364Z,57.94
2022-09-18T02:58:50.185Z,58.39
2022-09-18T03:01:17.560Z,58.05
2022-09-18T03:03:44.099Z,58.55
2022-09-18T03:06:12.554Z,57.60
2022-09-18T03:08:39.938Z,57.74
2022-09-18T03:11:06.446Z,58.02
2022-09-18T03:13:33.286Z,58.42
2022-09-18T03:15:59.810Z,58.58
2022-09-18T03:18:26.503Z,59.24
2022-09-18T03:20:55.456Z,58.88
2022-09-18T03:23:23.630Z,58.18
2022-09-18T03:25:52.950Z,57.98
2022-09-18T03:28:19.492Z,59.13
2022-09-18T03:30:46.019Z,59.26
2022-09-18T03:33:13.656Z,59.12
2022-09-18T03:35:42.639Z,59.60
2022-09-18T03:38:09.385Z,58.58
2022-09-18T03:40:36.008Z,58.32
2022-09-18T03:43:05.293Z,57.89
2022-09-18T03:45:31.838Z,58.60
2022-09-18T03:47:59.450Z,58.33
2022-09-18T03:50:27.508Z,58.64
2022-09-18T03:52:53.972Z,58.33
2022-09-18T03:55:43.220Z,58.02
2022-09-18T03:58:28.389Z,58.47
2022-09-18T04:01:18.386Z,58.06
2022-09-18T04:04:07.442Z,58.01
2022-09-18T04:07:08.902Z,58.00
2022-09-18T04:09:58.628Z,57.97
2022-09-18T04:12:25.142Z,58.78
2022-09-18T04:15:11.162Z,58.62
2022-09-18T04:17:37.616Z,58.63
2022-09-18T04:20:05.201Z,59.08
2022-09-18T04:22:31.694Z,58.82
2022-09-18T04:24:58.232Z,58.95
2022-09-18T04:27:24.715Z,58.44
2022-09-18T04:29:51.660Z,58.00
2022-09-18T04:32:19.007Z,58.76
2022-09-18T04:34:46.020Z,58.34
2022-09-18T04:37:12.624Z,58.42
2022-09-18T04:39:39.123Z,59.11
2022-09-18T04:42:05.627Z,58.46
2022-09-18T04:44:32.471Z,58.97
2022-09-18T04:46:59.624Z,58.21
2022-09-18T04:49:26.121Z,58.50
2022-09-18T04:51:52.604Z,57.72
2022-09-18T04:54:19.050Z,57.92
2022-09-18T04:56:45.729Z,58.32
2022-09-18T04:59:12.772Z,58.83
2022-09-18T05:01:43.547Z,58.27
2022-09-18T05:04:11.902Z,58.51
2022-09-18T05:06:50.660Z,58.95
2022-09-18T05:09:18.211Z,58.35
2022-09-18T05:11:44.962Z,58.64
2022-09-18T05:14:11.625Z,58.82
2022-09-18T05:16:40.413Z,58.79
2022-09-18T05:19:27.086Z,58.84
2022-09-18T05:22:00.114Z,58.90
2022-09-18T05:24:26.696Z,58.59
2022-09-18T05:26:53.203Z,58.33
2022-09-18T05:29:21.346Z,58.78
2022-09-18T05:31:49.955Z,58.75
2022-09-18T05:34:16.494Z,58.33
2022-09-18T05:36:43.113Z,58.39
2022-09-18T05:39:12.121Z,58.29
2022-09-18T05:41:41.391Z,58.33
2022-09-18T05:44:07.771Z,58.64
2022-09-18T05:46:34.297Z,58.47
2022-09-18T05:49:02.480Z,58.07
2022-09-18T05:51:28.974Z,58.31
2022-09-18T05:53:56.371Z,58.17
2022-09-18T05:56:33.267Z,58.38
2022-09-18T05:59:00.510Z,58.41
2022-09-18T06:01:29.831Z,57.86
2022-09-18T06:04:28.419Z,58.10
2022-09-18T06:07:01.485Z,57.76
2022-09-18T06:09:28.373Z,57.93
2022-09-18T06:11:54.850Z,57.99
2022-09-18T06:14:22.271Z,57.49
2022-09-18T06:16:48.993Z,57.37
2022-09-18T06:19:16.255Z,57.60
2022-09-18T06:21:45.292Z,57.38
2022-09-18T06:24:15.527Z,57.16
2022-09-18T06:27:04.976Z,56.74
2022-09-18T06:29:31.416Z,57.19
2022-09-18T06:32:13.706Z,57.06
2022-09-18T06:34:40.484Z,56.65
2022-09-18T06:37:10.045Z,56.44
2022-09-18T06:39:56.905Z,55.52
2022-09-18T06:42:45.803Z,55.17
2022-09-18T06:45:27.489Z,55.52
2022-09-18T06:47:55.226Z,54.73
2022-09-18T06:50:24.647Z,54.69
2022-09-18T06:52:51.151Z,55.03
2022-09-18T06:55:18.335Z,53.87
2022-09-18T06:57:55.320Z,53.18
2022-09-18T07:00:22.159Z,53.79
2022-09-18T07:02:57.913Z,53.47
2022-09-18T07:05:53.404Z,54.02
2022-09-18T07:08:34.642Z,53.65
2022-09-18T07:11:11.488Z,52.92
2022-09-18T07:13:38.119Z,52.87
2022-09-18T07:16:05.978Z,52.00
2022-09-18T07:18:32.585Z,51.60
2022-09-18T07:20:59.724Z,51.73
2022-09-18T07:23:38.544Z,52.12
2022-09-18T07:26:05.137Z,52.01
2022-09-18T07:28:33.821Z,52.57
2022-09-18T07:31:09.357Z,51.97
2022-09-18T07:33:37.159Z,52.18
2022-09-18T07:36:04.688Z,52.63
2022-09-18T07:38:34.678Z,52.27
2022-09-18T07:41:02.410Z,51.89
2022-09-18T07:43:30.965Z,51.60
2022-09-18T07:45:58.979Z,51.67
2022-09-18T07:48:27.816Z,51.26
2022-09-18T07:50:58.387Z,50.95
2022-09-18T07:53:25.345Z,50.37
2022-09-18T07:55:55.827Z,50.25
2022-09-18T07:58:24.030Z,50.18
2022-09-18T08:01:16.658Z,50.09
2022-09-18T08:03:55.769Z,48.96
2022-09-18T08:06:34.421Z,48.46
2022-09-18T08:09:21.156Z,47.83
2022-09-18T08:11:58.879Z,47.46
2022-09-18T08:14:37.415Z,47.64
2022-09-18T08:17:23.019Z,47.66
2022-09-18T08:20:15.753Z,47.76
2022-09-18T08:22:44.563Z,47.13
2022-09-18T08:25:12.273Z,47.15
2022-09-18T08:27:42.112Z,46.56
2022-09-18T08:30:09.812Z,46.08
2022-09-18T08:32:39.344Z,45.91
2022-09-18T08:35:07.167Z,45.88
2022-09-18T08:37:34.208Z,45.60
2022-09-18T08:40:21.547Z,45.83
2022-09-18T08:43:09.431Z,45.60
2022-09-18T08:45:45.015Z,45.76
2022-09-18T08:48:15.603Z,45.67
2022-09-18T08:50:46.819Z,45.30
2022-09-18T08:53:16.412Z,46.04
2022-09-18T08:56:22.012Z,45.45
2022-09-18T08:59:19.768Z,45.67
2022-09-18T09:01:51.936Z,46.65
2022-09-18T09:04:23.116Z,46.23
2022-09-18T09:06:49.639Z,46.49
2022-09-18T09:09:22.659Z,46.68
2022-09-18T09:11:58.659Z,45.99
2022-09-18T09:14:52.801Z,45.38
2022-09-18T09:17:24.827Z,44.16
2022-09-18T09:20:02.694Z,43.67
2022-09-18T09:22:53.394Z,43.03
2022-09-18T09:25:23.724Z,42.00
2022-09-18T09:28:23.437Z,41.87
2022-09-18T09:31:01.803Z,41.82
2022-09-18T09:34:01.459Z,41.46
2022-09-18T09:36:49.069Z,40.94
2022-09-18T09:39:20.951Z,40.78
2022-09-18T09:42:03.507Z,40.55
2022-09-18T09:44:38.266Z,40.00
2022-09-18T09:47:19.609Z,39.48
2022-09-18T09:49:52.439Z,39.51
2022-09-18T09:52:24.054Z,39.07
2022-09-18T09:55:21.318Z,38.75
2022-09-18T09:57:50.411Z,38.16
2022-09-18T10:00:19.321Z,37.97
2022-09-18T10:03:04.300Z,38.88
2022-09-18T10:05:43.863Z,39.08
2022-09-18T10:08:29.564Z,39.53
2022-09-18T10:11:01.004Z,39.90
2022-09-18T10:13:40.326Z,40.02
2022-09-18T10:16:11.256Z,39.78
2022-09-18T10:18:40.340Z,39.41
2022-09-18T10:21:14.935Z,38.40
2022-09-18T10:23:42.865Z,37.62
2022-09-18T10:26:15.008Z,35.70
2022-09-18T10:28:41.478Z,34.73
2022-09-18T10:31:12.698Z,35.13
2022-09-18T10:33:46.719Z,37.03
2022-09-18T10:36:23.582Z,38.11
2022-09-18T10:38:50.389Z,38.56
2022-09-18T10:41:26.978Z,39.38
2022-09-18T10:44:05.793Z,40.01
2022-09-18T10:46:34.200Z,39.53
2022-09-18T10:49:22.964Z,39.48
2022-09-18T10:52:09.389Z,39.00
2022-09-18T10:54:36.442Z,38.85
2022-09-18T10:57:25.780Z,37.51
2022-09-18T10:59:53.555Z,36.30
2022-09-18T11:02:21.872Z,36.47
2022-09-18T11:04:49.441Z,36.56
2022-09-18T11:07:22.379Z,36.69
2022-09-18T11:09:52.300Z,37.22
2022-09-18T11:12:24.265Z,38.45
2022-09-18T11:14:58.862Z,38.38
2022-09-18T11:17:27.676Z,37.90
2022-09-18T11:19:56.450Z,38.50
2022-09-18T11:22:33.863Z,37.88
2022-09-18T11:25:21.761Z,38.63
2022-09-18T11:27:52.185Z,38.89
2022-09-18T11:30:22.230Z,39.33
2022-09-18T11:32:52.462Z,39.41
2022-09-18T11:35:21.006Z,39.93
2022-09-18T11:37:58.335Z,40.25
2022-09-18T11:40:29.091Z,40.05
2022-09-18T11:42:55.979Z,40.18
2022-09-18T11:45:23.688Z,40.76
2022-09-18T11:47:57.338Z,40.82
2022-09-18T11:50:26.104Z,40.85
2022-09-18T11:53:00.383Z,41.12
2022-09-18T11:55:32.813Z,41.29
2022-09-18T11:58:02.850Z,41.97
2022-09-18T12:00:33.863Z,41.90
2022-09-18T12:03:08.338Z,41.64
2022-09-18T12:05:38.265Z,41.87
2022-09-18T12:08:08.073Z,42.02
2022-09-18T12:10:38.073Z,41.58
2022-09-18T12:13:13.689Z,41.57
2022-09-18T12:15:42.749Z,40.22
2022-09-18T12:18:13.064Z,40.36
2022-09-18T12:20:44.182Z,39.60
2022-09-18T12:23:22.109Z,40.30
2022-09-18T12:26:09.797Z,40.01
2022-09-18T12:29:08.415Z,39.49
2022-09-18T12:31:45.963Z,39.83
2022-09-18T12:34:21.568Z,39.03
2022-09-18T12:36:47.980Z,39.76
2022-09-18T12:39:38.829Z,39.93
2022-09-18T12:42:14.602Z,39.61
2022-09-18T12:44:47.166Z,39.96
2022-09-18T12:47:21.700Z,39.86
2022-09-18T12:50:01.897Z,39.85
2022-09-18T12:52:31.137Z,39.61
2022-09-18T12:55:16.427Z,39.50
2022-09-18T12:57:45.952Z,39.91
2022-09-18T13:00:16.283Z,40.40
2022-09-18T13:02:50.439Z,40.41
2022-09-18T13:05:26.882Z,39.94
2022-09-18T13:08:19.884Z,39.69
2022-09-18T13:10:47.263Z,39.83
2022-09-18T13:13:22.781Z,39.78
2022-09-18T13:15:52.281Z,39.48
2022-09-18T13:18:26.724Z,39.29
2022-09-18T13:20:54.260Z,39.12
2022-09-18T13:23:23.242Z,38.62
2022-09-18T13:25:51.699Z,39.11
2022-09-18T13:28:19.539Z,39.02
2022-09-18T13:30:46.875Z,39.25
2022-09-18T13:33:24.328Z,39.70
2022-09-18T13:36:00.286Z,38.65
2022-09-18T13:38:30.255Z,39.02
2022-09-18T13:41:00.293Z,39.05
2022-09-18T13:43:31.549Z,39.46
2022-09-18T13:46:06.076Z,39.68
2022-09-18T13:48:33.412Z,39.59
2022-09-18T13:51:04.579Z,39.18
2022-09-18T13:53:33.917Z,39.19
2022-09-18T13:56:00.680Z,39.04
2022-09-18T13:58:36.807Z,38.87
2022-09-18T14:01:04.824Z,39.56
2022-09-18T14:03:35.849Z,38.38
2022-09-18T14:06:21.417Z,39.12
2022-09-18T14:08:47.945Z,39.17
2022-09-18T14:11:22.603Z,39.33
2022-09-18T14:13:53.904Z,38.50
2022-09-18T14:16:20.533Z,39.15
2022-09-18T14:18:47.074Z,38.79
2022-09-18T14:21:18.483Z,38.95
2022-09-18T14:23:46.143Z,38.93
2022-09-18T14:26:37.078Z,39.38
2022-09-18T14:29:03.567Z,39.78
2022-09-18T14:31:36.544Z,39.38
2022-09-18T14:34:05.517Z,39.51
2022-09-18T14:36:42.688Z,39.62
2022-09-18T14:39:29.722Z,39.26
2022-09-18T14:42:01.795Z,39.04
2022-09-18T14:44:29.236Z,38.92
2022-09-18T14:47:00.223Z,38.77
2022-09-18T14:49:28.395Z,38.52
2022-09-18T14:52:03.876Z,38.39
2022-09-18T14:54:31.364Z,38.39
2022-09-18T14:57:01.113Z,38.34
2022-09-18T14:59:29.158Z,38.21
2022-09-18T15:02:31.463Z,38.23
2022-09-18T15:04:59.997Z,38.44
2022-09-18T15:07:26.955Z,38.80
2022-09-18T15:09:55.208Z,38.69
2022-09-18T15:12:23.884Z,38.78
2022-09-18T15:14:50.323Z,38.68
2022-09-18T15:17:18.481Z,38.20
2022-09-18T15:19:55.245Z,38.48
2022-09-18T15:22:22.832Z,38.49
2022-09-18T15:24:49.575Z,38.70
2022-09-18T15:27:16.691Z,38.95
2022-09-18T15:29:46.355Z,38.81
2022-09-18T15:32:19.672Z,38.51
2022-09-18T15:34:48.258Z,38.80
2022-09-18T15:37:19.081Z,38.90
2022-09-18T15:39:47.477Z,38.50
2022-09-18T15:42:26.302Z,38.30
2022-09-18T15:44:55.991Z,38.25
2022-09-18T15:47:25.612Z,38.12
2022-09-18T15:49:53.298Z,37.84
2022-09-18T15:52:38.384Z,38.02
2022-09-18T15:55:11.170Z,38.20
2022-09-18T15:57:37.783Z,38.20
2022-09-18T16:00:06.474Z,38.51
2022-09-18T16:02:39.270Z,38.50
2022-09-18T16:05:09.839Z,38.20
2022-09-18T16:07:39.298Z,38.84
2022-09-18T16:10:32.027Z,38.54
2022-09-18T16:13:00.737Z,38.53
2022-09-18T16:15:27.551Z,38.58
2022-09-18T16:17:56.426Z,38.98
2022-09-18T16:20:29.995Z,39.19
2022-09-18T16:23:13.687Z,39.83
2022-09-18T16:25:42.040Z,39.63
2022-09-18T16:28:25.407Z,39.97
2022-09-18T16:30:52.219Z,40.16
2022-09-18T16:33:29.095Z,40.66
2022-09-18T16:36:03.947Z,41.18
2022-09-18T16:38:30.863Z,41.80
2022-09-18T16:40:58.265Z,41.99
2022-09-18T16:43:25.059Z,41.83
2022-09-18T16:45:51.694Z,42.97
2022-09-18T16:48:18.819Z,43.59
2022-09-18T16:50:45.472Z,43.75
2022-09-18T16:53:11.947Z,44.05
2022-09-18T16:55:40.696Z,43.28
2022-09-18T16:58:07.930Z,43.72
2022-09-18T17:00:36.027Z,42.97
2022-09-18T17:03:02.795Z,43.00
2022-09-18T17:05:29.341Z,43.65
2022-09-18T17:07:55.917Z,43.55
2022-09-18T17:10:22.452Z,43.25
2022-09-18T17:12:48.944Z,42.88
2022-09-18T17:15:15.849Z,43.37
2022-09-18T17:17:42.718Z,42.89
2022-09-18T17:20:09.705Z,44.03
2022-09-18T17:22:36.272Z,44.04
2022-09-18T17:25:02.842Z,44.42
2022-09-18T17:27:29.877Z,45.30
2022-09-18T17:29:56.422Z,44.62
2022-09-18T17:32:23.709Z,45.67
2022-09-18T17:34:50.184Z,46.31
2022-09-18T17:37:16.796Z,46.50
2022-09-18T17:39:43.425Z,47.11
2022-09-18T17:42:10.120Z,47.51
2022-09-18T17:44:37.092Z,47.78
2022-09-18T17:47:03.875Z,47.49
2022-09-18T17:49:31.510Z,47.12
2022-09-18T17:51:58.113Z,46.89
2022-09-18T17:54:24.727Z,47.23
2022-09-18T17:56:51.212Z,47.91
2022-09-18T17:59:18.299Z,48.09
2022-09-18T18:01:47.032Z,48.47
2022-09-18T18:04:13.891Z,48.15
2022-09-18T18:06:40.589Z,50.11
2022-09-18T18:09:09.898Z,49.19
2022-09-18T18:11:37.748Z,49.60
2022-09-18T18:14:05.445Z,49.31
2022-09-18T18:16:33.433Z,49.38
2022-09-18T18:19:01.942Z,49.65
2022-09-18T18:21:29.184Z,50.01
2022-09-18T18:23:56.916Z,50.38
2022-09-18T18:26:23.881Z,49.50
2022-09-18T18:28:50.541Z,49.32
2022-09-18T18:31:17.942Z,49.62
2022-09-18T18:33:45.265Z,49.72
2022-09-18T18:36:18.116Z,49.90
2022-09-18T18:38:45.571Z,49.80
2022-09-18T18:41:12.772Z,49.25
2022-09-18T18:43:42.551Z,50.10
2022-09-18T18:46:12.703Z,49.63
2022-09-18T18:48:40.062Z,49.54
2022-09-18T18:51:08.568Z,49.97
2022-09-18T18:53:38.567Z,49.16
2022-09-18T18:56:10.852Z,48.92
2022-09-18T18:58:37.684Z,48.69
2022-09-18T19:01:08.825Z,48.96
2022-09-18T19:03:39.825Z,48.89
2022-09-18T19:06:06.909Z,48.90
2022-09-18T19:08:35.607Z,49.71
2022-09-18T19:11:03.781Z,49.08
2022-09-18T19:13:30.718Z,49.55
2022-09-18T19:15:57.532Z,49.10
2022-09-18T19:18:24.128Z,48.59
2022-09-18T19:20:53.517Z,49.14
2022-09-18T19:23:20.942Z,48.91
2022-09-18T19:25:48.694Z,48.90
2022-09-18T19:28:16.366Z,48.54
2022-09-18T19:30:43.033Z,48.49
2022-09-18T19:33:16.095Z,48.07
2022-09-18T19:35:42.784Z,48.59
2022-09-18T19:38:09.879Z,49.08
2022-09-18T19:40:38.195Z,49.07
2022-09-18T19:43:12.297Z,49.16
2022-09-18T19:45:39.956Z,48.38
2022-09-18T19:48:08.350Z,48.52
2022-09-18T19:50:39.029Z,48.46
2022-09-18T19:53:06.206Z,48.38
2022-09-18T19:55:34.599Z,48.59
2022-09-18T19:58:01.540Z,48.57
2022-09-18T20:00:28.313Z,48.27
2022-09-18T20:02:57.759Z,47.94
2022-09-18T20:05:27.038Z,48.56
2022-09-18T20:07:53.717Z,48.01
2022-09-18T20:10:20.373Z,48.38
2022-09-18T20:12:47.740Z,48.79
2022-09-18T20:15:14.443Z,48.04
2022-09-18T20:17:41.220Z,47.52
2022-09-18T20:20:08.982Z,49.29
2022-09-18T20:22:40.006Z,48.65
2022-09-18T20:25:08.096Z,50.24
2022-09-18T20:27:39.022Z,50.93
2022-09-18T20:30:07.336Z,51.39
2022-09-18T20:32:34.113Z,52.27
2022-09-18T20:35:00.576Z,52.43
2022-09-18T20:37:32.854Z,53.00
2022-09-18T20:40:01.654Z,54.55
2022-09-18T20:42:33.467Z,55.54
2022-09-18T20:45:04.566Z,55.49
2022-09-18T20:47:34.835Z,55.37
2022-09-18T20:50:06.660Z,56.18
2022-09-18T20:52:37.786Z,56.80
2022-09-18T20:55:08.753Z,57.33
2022-09-18T20:57:39.082Z,57.10
2022-09-18T21:00:07.361Z,59.14
2022-09-18T21:02:35.385Z,60.42
2022-09-18T21:05:03.249Z,60.86
2022-09-18T21:07:31.561Z,61.39
2022-09-18T21:09:58.809Z,61.37
2022-09-18T21:12:25.766Z,62.38
2022-09-18T21:14:52.430Z,62.45
2022-09-18T21:17:18.859Z,62.43
2022-09-18T21:19:48.588Z,62.28
2022-09-18T21:22:16.979Z,61.65
2022-09-18T21:24:44.269Z,60.81
2022-09-18T21:27:10.856Z,61.73
2022-09-18T21:29:40.715Z,61.22
2022-09-18T21:32:08.198Z,61.16
2022-09-18T21:34:34.885Z,61.48
2022-09-18T21:37:02.501Z,61.28
2022-09-18T21:39:29.804Z,61.89
2022-09-18T21:41:57.468Z,61.79
2022-09-18T21:44:27.213Z,62.28
2022-09-18T21:46:55.047Z,62.01
2022-09-18T21:49:22.898Z,62.02
2022-09-18T21:51:50.017Z,62.32
2022-09-18T21:54:18.253Z,61.51
2022-09-18T21:56:48.315Z,62.04
2022-09-18T21:59:14.824Z,62.45
2022-09-18T22:01:42.798Z,62.53
2022-09-18T22:04:10.320Z,62.69
2022-09-18T22:06:44.151Z,62.99
2022-09-18T22:09:15.616Z,63.17
2022-09-18T22:11:42.918Z,62.04
2022-09-18T22:14:11.001Z,61.93
2022-09-18T22:16:38.072Z,61.52
2022-09-18T22:19:06.169Z,61.83
2022-09-18T22:21:34.190Z,61.35
2022-09-18T22:24:06.450Z,61.84
2022-09-18T22:26:37.579Z,62.01
2022-09-18T22:29:08.352Z,61.65
2022-09-18T22:31:35.642Z,61.86
2022-09-18T22:34:02.343Z,62.12
2022-09-18T22:36:29.062Z,61.97
2022-09-18T22:38:55.736Z,61.77
2022-09-18T22:41:22.742Z,62.79
2022-09-18T22:43:53.279Z,63.18
2022-09-18T22:46:19.973Z,63.70
2022-09-18T22:48:46.895Z,63.34
2022-09-18T22:51:14.579Z,63.56
2022-09-18T22:53:45.739Z,63.91
2022-09-18T22:56:13.300Z,63.85
2022-09-18T22:58:41.308Z,63.57
2022-09-18T23:01:12.951Z,63.70
2022-09-18T23:03:39.964Z,63.77
2022-09-18T23:06:07.281Z,64.67
2022-09-18T23:08:34.913Z,64.16
2022-09-18T23:11:02.731Z,64.78
2022-09-18T23:13:29.290Z,64.68
2022-09-18T23:15:55.734Z,65.27
2022-09-18T23:18:22.200Z,65.11
2022-09-18T23:20:48.694Z,65.23
2022-09-18T23:23:15.230Z,65.16
2022-09-18T23:25:41.701Z,64.60
2022-09-18T23:28:08.206Z,64.32
2022-09-18T23:30:36.343Z,64.86
2022-09-18T23:33:02.808Z,64.12
2022-09-18T23:35:29.218Z,63.83
2022-09-18T23:37:56.360Z,64.09
2022-09-18T23:40:22.827Z,64.28
2022-09-18T23:42:49.299Z,64.65
2022-09-18T23:45:15.690Z,65.11
2022-09-18T23:47:42.123Z,64.09
2022-09-18T23:50:08.587Z,64.19
2022-09-18T23:52:35.125Z,64.97
2022-09-18T23:55:01.727Z,64.92
2022-09-18T23:57:28.337Z,65.12
2022-09-18T23:59:58.594Z,64.57
